OAL883 FMMI-FMCH
Flight info
| Callsign | OAL883 |
|---|---|
| Flight time | 1h 18m |
| Altitude | 38000 |
| Route | TN UA401 GALBA |
| Aircraft | A319/M-SDE3FGHIRWY/LB1 |
Departure
| Time | 2026-05-05 18:08 |
|---|---|
| Airport | Ivato International Airport (FMMI) |
Arrival
| Time | 2026-05-05 19:26 |
|---|---|
| Airport | Prince Said Ibrahim International Airport (FMCH) |
| Time | Latitude | Longitude | Altitude | Speed | Heading |
|---|---|---|---|---|---|
| 2026-05-05 17:54 | -18.79879 | 47.47634 | 4166 ft | 0 kts | 189° |
| 2026-05-05 17:59 | -18.79878 | 47.47635 | 4166 ft | 1 kts | 189° |
| 2026-05-05 17:59 | -18.79854 | 47.47637 | 4166 ft | 4 kts | 178° |
| 2026-05-05 17:59 | -18.79828 | 47.47633 | 4166 ft | 4 kts | 148° |
| 2026-05-05 18:00 | -18.79815 | 47.47617 | 4166 ft | 1 kts | 102° |
| 2026-05-05 18:00 | -18.79814 | 47.47612 | 4166 ft | 0 kts | 102° |
| 2026-05-05 18:03 | -18.79812 | 47.47617 | 4166 ft | 1 kts | 77° |
| 2026-05-05 18:03 | -18.79799 | 47.47621 | 4166 ft | 3 kts | 1° |
| 2026-05-05 18:03 | -18.79772 | 47.47611 | 4166 ft | 6 kts | 338° |
| 2026-05-05 18:03 | -18.79725 | 47.47600 | 4165 ft | 9 kts | 1° |
| 2026-05-05 18:04 | -18.79656 | 47.47587 | 4164 ft | 12 kts | 314° |
| 2026-05-05 18:04 | -18.79632 | 47.47493 | 4163 ft | 15 kts | 279° |
| 2026-05-05 18:04 | -18.79614 | 47.47376 | 4162 ft | 18 kts | 278° |
| 2026-05-05 18:04 | -18.79595 | 47.47239 | 4161 ft | 20 kts | 278° |
| 2026-05-05 18:05 | -18.79573 | 47.47082 | 4160 ft | 23 kts | 278° |
| 2026-05-05 18:05 | -18.79546 | 47.46914 | 4161 ft | 21 kts | 279° |
| 2026-05-05 18:05 | -18.79520 | 47.46753 | 4162 ft | 23 kts | 279° |
| 2026-05-05 18:05 | -18.79497 | 47.46602 | 4161 ft | 19 kts | 279° |
| 2026-05-05 18:06 | -18.79453 | 47.46502 | 4161 ft | 12 kts | 319° |
| 2026-05-05 18:06 | -18.79450 | 47.46456 | 4162 ft | 10 kts | 218° |
| 2026-05-05 18:06 | -18.79480 | 47.46483 | 4161 ft | 0 kts | 105° |
| 2026-05-05 18:07 | -18.79482 | 47.46494 | 4161 ft | 4 kts | 105° |
| 2026-05-05 18:07 | -18.79513 | 47.46702 | 4161 ft | 57 kts | 98° |
| 2026-05-05 18:07 | -18.79608 | 47.47332 | 4162 ft | 116 kts | 98° |
| 2026-05-05 18:07 | -18.79758 | 47.48333 | 4397 ft | 146 kts | 99° |
| 2026-05-05 18:08 | -18.79918 | 47.49397 | 5117 ft | 148 kts | 99° |
| 2026-05-05 18:08 | -18.80078 | 47.50467 | 5897 ft | 148 kts | 98° |
| 2026-05-05 18:08 | -18.80245 | 47.51592 | 6398 ft | 165 kts | 99° |
| 2026-05-05 18:08 | -18.80433 | 47.52875 | 6801 ft | 189 kts | 99° |
| 2026-05-05 18:09 | -18.80649 | 47.54340 | 7220 ft | 214 kts | 99° |
| 2026-05-05 18:09 | -18.80674 | 47.55995 | 7721 ft | 242 kts | 76° |
| 2026-05-05 18:09 | -18.79703 | 47.57535 | 8326 ft | 267 kts | 37° |
| 2026-05-05 18:09 | -18.77969 | 47.58160 | 9483 ft | 268 kts | 0° |
| 2026-05-05 18:10 | -18.76191 | 47.57644 | 10546 ft | 269 kts | 325° |
| 2026-05-05 18:10 | -18.74901 | 47.56218 | 11483 ft | 271 kts | 302° |
| 2026-05-05 18:10 | -18.73866 | 47.54549 | 12425 ft | 275 kts | 301° |
| 2026-05-05 18:10 | -18.72798 | 47.52809 | 13038 ft | 293 kts | 301° |
| 2026-05-05 18:11 | -18.71651 | 47.50927 | 13418 ft | 317 kts | 301° |
| 2026-05-05 18:11 | -18.70382 | 47.48920 | 13709 ft | 341 kts | 306° |
| 2026-05-05 18:11 | -18.68799 | 47.46938 | 13908 ft | 365 kts | 312° |
| 2026-05-05 18:11 | -18.66962 | 47.44984 | 14167 ft | 383 kts | 316° |
| 2026-05-05 18:12 | -18.64997 | 47.43047 | 14711 ft | 389 kts | 317° |
| 2026-05-05 18:12 | -18.62997 | 47.41108 | 15327 ft | 392 kts | 316° |
| 2026-05-05 18:12 | -18.60995 | 47.39135 | 15967 ft | 396 kts | 316° |
| 2026-05-05 18:12 | -18.59002 | 47.37119 | 16609 ft | 398 kts | 315° |
| 2026-05-05 18:13 | -18.57023 | 47.35069 | 17272 ft | 401 kts | 314° |
| 2026-05-05 18:13 | -18.55041 | 47.32990 | 17919 ft | 404 kts | 314° |
| 2026-05-05 18:13 | -18.53049 | 47.30884 | 18572 ft | 407 kts | 314° |
| 2026-05-05 18:13 | -18.51044 | 47.28759 | 19131 ft | 410 kts | 313° |
| 2026-05-05 18:14 | -18.49021 | 47.26624 | 19717 ft | 413 kts | 314° |
| 2026-05-05 18:14 | -18.46980 | 47.24482 | 20328 ft | 416 kts | 314° |
| 2026-05-05 18:14 | -18.44879 | 47.22373 | 20915 ft | 420 kts | 319° |
| 2026-05-05 18:14 | -18.42575 | 47.20464 | 21456 ft | 424 kts | 320° |
| 2026-05-05 18:15 | -18.40241 | 47.18545 | 22006 ft | 427 kts | 320° |
| 2026-05-05 18:15 | -18.37897 | 47.16611 | 22509 ft | 430 kts | 320° |
| 2026-05-05 18:15 | -18.35535 | 47.14656 | 22999 ft | 434 kts | 320° |
| 2026-05-05 18:15 | -18.33113 | 47.12741 | 23480 ft | 439 kts | 325° |
| 2026-05-05 18:16 | -18.30414 | 47.11197 | 23924 ft | 445 kts | 335° |
| 2026-05-05 18:16 | -18.27470 | 47.10141 | 24326 ft | 450 kts | 343° |
| 2026-05-05 18:16 | -18.24446 | 47.09258 | 24736 ft | 452 kts | 343° |
| 2026-05-05 18:16 | -18.21407 | 47.08371 | 25150 ft | 454 kts | 342° |
| 2026-05-05 18:17 | -18.18355 | 47.07477 | 25559 ft | 457 kts | 342° |
| 2026-05-05 18:17 | -18.15286 | 47.06572 | 25948 ft | 459 kts | 342° |
| 2026-05-05 18:17 | -18.12206 | 47.05660 | 26335 ft | 461 kts | 342° |
| 2026-05-05 18:17 | -18.09111 | 47.04742 | 26719 ft | 464 kts | 342° |
| 2026-05-05 18:18 | -18.05994 | 47.03818 | 27107 ft | 466 kts | 342° |
| 2026-05-05 18:18 | -18.02864 | 47.02895 | 27481 ft | 469 kts | 342° |
| 2026-05-05 18:18 | -17.99714 | 47.01968 | 27855 ft | 471 kts | 342° |
| 2026-05-05 18:18 | -17.96552 | 47.01039 | 28221 ft | 473 kts | 342° |
| 2026-05-05 18:19 | -17.93333 | 47.00091 | 28572 ft | 475 kts | 341° |
| 2026-05-05 18:19 | -17.90147 | 46.99153 | 28925 ft | 478 kts | 341° |
| 2026-05-05 18:19 | -17.86937 | 46.98210 | 29275 ft | 480 kts | 341° |
| 2026-05-05 18:19 | -17.83755 | 46.97279 | 29616 ft | 482 kts | 341° |
| 2026-05-05 18:20 | -17.80471 | 46.96322 | 29948 ft | 484 kts | 341° |
| 2026-05-05 18:20 | -17.78322 | 46.95695 | 30174 ft | 485 kts | 341° |
| 2026-05-05 18:20 | -17.73958 | 46.94422 | 30543 ft | 488 kts | 341° |
| 2026-05-05 18:20 | -17.70688 | 46.93464 | 30884 ft | 487 kts | 341° |
| 2026-05-05 18:21 | -17.67429 | 46.92507 | 31276 ft | 486 kts | 341° |
| 2026-05-05 18:21 | -17.64176 | 46.91552 | 31669 ft | 485 kts | 341° |
| 2026-05-05 18:21 | -17.60928 | 46.90598 | 32054 ft | 484 kts | 341° |
| 2026-05-05 18:21 | -17.57681 | 46.89648 | 32468 ft | 484 kts | 341° |
| 2026-05-05 18:22 | -17.55540 | 46.89020 | 32746 ft | 483 kts | 342° |
| 2026-05-05 18:22 | -17.52309 | 46.88075 | 33178 ft | 482 kts | 342° |
| 2026-05-05 18:22 | -17.49079 | 46.87131 | 33637 ft | 481 kts | 342° |
| 2026-05-05 18:22 | -17.45861 | 46.86192 | 34099 ft | 480 kts | 342° |
| 2026-05-05 18:23 | -17.42651 | 46.85253 | 34516 ft | 479 kts | 342° |
| 2026-05-05 18:23 | -17.39448 | 46.84315 | 34951 ft | 477 kts | 342° |
| 2026-05-05 18:23 | -17.36250 | 46.83379 | 35380 ft | 476 kts | 342° |
| 2026-05-05 18:23 | -17.33064 | 46.82447 | 35815 ft | 475 kts | 342° |
| 2026-05-05 18:24 | -17.29887 | 46.81517 | 36256 ft | 474 kts | 342° |
| 2026-05-05 18:24 | -17.26717 | 46.80591 | 36659 ft | 472 kts | 341° |
| 2026-05-05 18:24 | -17.23557 | 46.79673 | 37117 ft | 470 kts | 341° |
| 2026-05-05 18:24 | -17.20410 | 46.78760 | 37560 ft | 469 kts | 341° |
| 2026-05-05 18:25 | -17.17273 | 46.77845 | 37932 ft | 469 kts | 341° |
| 2026-05-05 18:25 | -17.11006 | 46.76019 | 38034 ft | 465 kts | 341° |
| 2026-05-05 18:26 | -17.04779 | 46.74209 | 38021 ft | 464 kts | 341° |
| 2026-05-05 18:26 | -16.98563 | 46.72399 | 38010 ft | 464 kts | 341° |
| 2026-05-05 18:27 | -16.92339 | 46.70594 | 38008 ft | 464 kts | 341° |
| 2026-05-05 18:27 | -16.86123 | 46.68790 | 38008 ft | 464 kts | 341° |
| 2026-05-05 18:28 | -16.76796 | 46.66084 | 38009 ft | 464 kts | 341° |
| 2026-05-05 18:28 | -16.70569 | 46.64275 | 38000 ft | 464 kts | 341° |
| 2026-05-05 18:29 | -16.64346 | 46.62470 | 38005 ft | 464 kts | 341° |
| 2026-05-05 18:29 | -16.58119 | 46.60673 | 38002 ft | 464 kts | 341° |
| 2026-05-05 18:30 | -16.51899 | 46.58875 | 38007 ft | 464 kts | 341° |
| 2026-05-05 18:30 | -16.45680 | 46.57071 | 38002 ft | 464 kts | 341° |
| 2026-05-05 18:31 | -16.39455 | 46.55276 | 37997 ft | 464 kts | 341° |
| 2026-05-05 18:31 | -16.33241 | 46.53479 | 37999 ft | 464 kts | 341° |
| 2026-05-05 18:32 | -16.27023 | 46.51683 | 37997 ft | 464 kts | 341° |
| 2026-05-05 18:32 | -16.20805 | 46.49890 | 37997 ft | 464 kts | 341° |
| 2026-05-05 18:33 | -16.14584 | 46.48103 | 37989 ft | 464 kts | 342° |
| 2026-05-05 18:33 | -16.08367 | 46.46316 | 37992 ft | 463 kts | 342° |
| 2026-05-05 18:34 | -16.02155 | 46.44525 | 37992 ft | 463 kts | 341° |
| 2026-05-05 18:34 | -15.95942 | 46.42733 | 37988 ft | 463 kts | 342° |
| 2026-05-05 18:35 | -15.89687 | 46.40942 | 37988 ft | 463 kts | 342° |
| 2026-05-05 18:35 | -15.83517 | 46.39170 | 37983 ft | 463 kts | 342° |
| 2026-05-05 18:36 | -15.77309 | 46.37383 | 37978 ft | 463 kts | 342° |
| 2026-05-05 18:36 | -15.71095 | 46.35600 | 37976 ft | 463 kts | 342° |
| 2026-05-05 18:37 | -15.65115 | 46.33252 | 37977 ft | 457 kts | 327° |
| 2026-05-05 18:37 | -15.60010 | 46.29394 | 37973 ft | 454 kts | 319° |
| 2026-05-05 18:38 | -15.55024 | 46.25312 | 37979 ft | 454 kts | 319° |
| 2026-05-05 18:38 | -15.50068 | 46.21259 | 37979 ft | 454 kts | 319° |
| 2026-05-05 18:39 | -15.45108 | 46.17216 | 37980 ft | 454 kts | 319° |
| 2026-05-05 18:39 | -15.40143 | 46.13181 | 37978 ft | 453 kts | 319° |
| 2026-05-05 18:40 | -15.35186 | 46.09142 | 37977 ft | 453 kts | 319° |
| 2026-05-05 18:40 | -15.30224 | 46.05107 | 37975 ft | 453 kts | 319° |
| 2026-05-05 18:41 | -15.25264 | 46.01074 | 37979 ft | 453 kts | 319° |
| 2026-05-05 18:41 | -15.20311 | 45.97052 | 37974 ft | 453 kts | 319° |
| 2026-05-05 18:42 | -15.15360 | 45.93032 | 37978 ft | 452 kts | 319° |
| 2026-05-05 18:42 | -15.10411 | 45.89016 | 37972 ft | 452 kts | 319° |
| 2026-05-05 18:43 | -15.05463 | 45.85005 | 37984 ft | 452 kts | 319° |
| 2026-05-05 18:43 | -15.00517 | 45.80993 | 37980 ft | 452 kts | 319° |
| 2026-05-05 18:44 | -14.95574 | 45.76984 | 37974 ft | 451 kts | 320° |
| 2026-05-05 18:44 | -14.90629 | 45.72977 | 37978 ft | 451 kts | 320° |
| 2026-05-05 18:45 | -14.85718 | 45.69007 | 37977 ft | 451 kts | 320° |
| 2026-05-05 18:45 | -14.80749 | 45.64986 | 37974 ft | 451 kts | 320° |
| 2026-05-05 18:46 | -14.75845 | 45.61021 | 37978 ft | 450 kts | 320° |
| 2026-05-05 18:46 | -14.70905 | 45.57036 | 37978 ft | 450 kts | 320° |
| 2026-05-05 18:47 | -14.65933 | 45.53026 | 37966 ft | 450 kts | 320° |
| 2026-05-05 18:47 | -14.61027 | 45.49068 | 37968 ft | 450 kts | 320° |
| 2026-05-05 18:48 | -14.56062 | 45.45061 | 37972 ft | 450 kts | 320° |
| 2026-05-05 18:48 | -14.51129 | 45.41085 | 37973 ft | 450 kts | 320° |
| 2026-05-05 18:49 | -14.46192 | 45.37105 | 37972 ft | 450 kts | 320° |
| 2026-05-05 18:49 | -14.41256 | 45.33131 | 37972 ft | 450 kts | 320° |
| 2026-05-05 18:50 | -14.37151 | 45.29827 | 37976 ft | 450 kts | 320° |
| 2026-05-05 18:50 | -14.31375 | 45.25191 | 37975 ft | 450 kts | 320° |
| 2026-05-05 18:51 | -14.26436 | 45.21223 | 37975 ft | 450 kts | 320° |
| 2026-05-05 18:51 | -14.21498 | 45.17255 | 37972 ft | 450 kts | 320° |
| 2026-05-05 18:52 | -14.16559 | 45.13289 | 37975 ft | 450 kts | 320° |
| 2026-05-05 18:52 | -14.11619 | 45.09321 | 37975 ft | 450 kts | 320° |
| 2026-05-05 18:53 | -14.06683 | 45.05356 | 37978 ft | 450 kts | 320° |
| 2026-05-05 18:53 | -14.01738 | 45.01394 | 37977 ft | 450 kts | 320° |
| 2026-05-05 18:54 | -13.96794 | 44.97440 | 37976 ft | 450 kts | 320° |
| 2026-05-05 18:54 | -13.91851 | 44.93487 | 37977 ft | 450 kts | 320° |
| 2026-05-05 18:55 | -13.86914 | 44.89533 | 37981 ft | 450 kts | 320° |
| 2026-05-05 18:55 | -13.81972 | 44.85585 | 37984 ft | 450 kts | 320° |
| 2026-05-05 18:56 | -13.77026 | 44.81643 | 37978 ft | 450 kts | 321° |
| 2026-05-05 18:56 | -13.72088 | 44.77692 | 37981 ft | 450 kts | 320° |
| 2026-05-05 18:57 | -13.67149 | 44.73742 | 37982 ft | 450 kts | 321° |
| 2026-05-05 18:57 | -13.62201 | 44.69801 | 37983 ft | 450 kts | 321° |
| 2026-05-05 18:58 | -13.57256 | 44.65867 | 37986 ft | 450 kts | 321° |
| 2026-05-05 18:58 | -13.52315 | 44.61924 | 37986 ft | 450 kts | 321° |
| 2026-05-05 18:59 | -13.47376 | 44.57985 | 37988 ft | 450 kts | 321° |
| 2026-05-05 18:59 | -13.42432 | 44.54043 | 37988 ft | 450 kts | 321° |
| 2026-05-05 19:00 | -13.38317 | 44.50775 | 37988 ft | 450 kts | 321° |
| 2026-05-05 19:00 | -13.33146 | 44.47152 | 37985 ft | 451 kts | 326° |
| 2026-05-05 19:01 | -13.27868 | 44.43672 | 37987 ft | 451 kts | 326° |
| 2026-05-05 19:01 | -13.22586 | 44.40186 | 37988 ft | 451 kts | 326° |
| 2026-05-05 19:02 | -13.17304 | 44.36704 | 37989 ft | 451 kts | 326° |
| 2026-05-05 19:02 | -13.12020 | 44.33219 | 37983 ft | 451 kts | 326° |
| 2026-05-05 19:03 | -13.06740 | 44.29739 | 37986 ft | 451 kts | 326° |
| 2026-05-05 19:03 | -13.01453 | 44.26255 | 37988 ft | 452 kts | 326° |
| 2026-05-05 19:04 | -12.96162 | 44.22780 | 37986 ft | 452 kts | 326° |
| 2026-05-05 19:04 | -12.90871 | 44.19306 | 37987 ft | 452 kts | 326° |
| 2026-05-05 19:05 | -12.85575 | 44.15827 | 37986 ft | 452 kts | 326° |
| 2026-05-05 19:05 | -12.80283 | 44.12351 | 37987 ft | 452 kts | 326° |
| 2026-05-05 19:06 | -12.74989 | 44.08872 | 37990 ft | 452 kts | 326° |
| 2026-05-05 19:06 | -12.69690 | 44.05393 | 37991 ft | 452 kts | 326° |
| 2026-05-05 19:07 | -12.64390 | 44.01917 | 37846 ft | 453 kts | 326° |
| 2026-05-05 19:07 | -12.61738 | 44.00179 | 37587 ft | 453 kts | 326° |
| 2026-05-05 19:07 | -12.59086 | 43.98441 | 37279 ft | 452 kts | 326° |
| 2026-05-05 19:08 | -12.56433 | 43.96700 | 36482 ft | 456 kts | 326° |
| 2026-05-05 19:08 | -12.53752 | 43.94940 | 35638 ft | 459 kts | 326° |
| 2026-05-05 19:08 | -12.51044 | 43.93165 | 34685 ft | 464 kts | 326° |
| 2026-05-05 19:08 | -12.48299 | 43.91370 | 33500 ft | 472 kts | 326° |
| 2026-05-05 19:09 | -12.45516 | 43.89551 | 32410 ft | 476 kts | 326° |
| 2026-05-05 19:09 | -12.42724 | 43.87726 | 31294 ft | 478 kts | 326° |
| 2026-05-05 19:09 | -12.39913 | 43.85885 | 29998 ft | 478 kts | 326° |
| 2026-05-05 19:09 | -12.37096 | 43.84041 | 27859 ft | 483 kts | 326° |
| 2026-05-05 19:10 | -12.34250 | 43.82180 | 25860 ft | 488 kts | 327° |
| 2026-05-05 19:10 | -12.31405 | 43.80323 | 24157 ft | 484 kts | 328° |
| 2026-05-05 19:10 | -12.28607 | 43.78495 | 23097 ft | 467 kts | 328° |
| 2026-05-05 19:10 | -12.25935 | 43.76726 | 22254 ft | 454 kts | 326° |
| 2026-05-05 19:11 | -12.23534 | 43.74647 | 21313 ft | 451 kts | 315° |
| 2026-05-05 19:11 | -12.21553 | 43.72184 | 20378 ft | 447 kts | 305° |
| 2026-05-05 19:11 | -12.20045 | 43.69423 | 19453 ft | 444 kts | 295° |
| 2026-05-05 19:11 | -12.18940 | 43.66488 | 18559 ft | 440 kts | 291° |
| 2026-05-05 19:12 | -12.17874 | 43.63569 | 17635 ft | 436 kts | 291° |
| 2026-05-05 19:12 | -12.16812 | 43.60694 | 16839 ft | 429 kts | 292° |
| 2026-05-05 19:12 | -12.15761 | 43.57867 | 16068 ft | 422 kts | 291° |
| 2026-05-05 19:12 | -12.14713 | 43.55047 | 15291 ft | 416 kts | 291° |
| 2026-05-05 19:13 | -12.13695 | 43.52299 | 14516 ft | 411 kts | 291° |
| 2026-05-05 19:13 | -12.12691 | 43.49585 | 13715 ft | 406 kts | 291° |
| 2026-05-05 19:13 | -12.11698 | 43.46906 | 12843 ft | 401 kts | 291° |
| 2026-05-05 19:13 | -12.10716 | 43.44260 | 12012 ft | 395 kts | 291° |
| 2026-05-05 19:14 | -12.09749 | 43.41655 | 11164 ft | 390 kts | 291° |
| 2026-05-05 19:14 | -12.08805 | 43.39113 | 10742 ft | 369 kts | 291° |
| 2026-05-05 19:14 | -12.07934 | 43.36764 | 10493 ft | 341 kts | 291° |
| 2026-05-05 19:14 | -12.07126 | 43.34577 | 10261 ft | 318 kts | 291° |
| 2026-05-05 19:15 | -12.06362 | 43.32510 | 10039 ft | 306 kts | 290° |
| 2026-05-05 19:15 | -12.05621 | 43.30505 | 9870 ft | 296 kts | 290° |
| 2026-05-05 19:15 | -12.04905 | 43.28573 | 9753 ft | 286 kts | 290° |
| 2026-05-05 19:15 | -12.04214 | 43.26706 | 9625 ft | 276 kts | 290° |
| 2026-05-05 19:16 | -12.03545 | 43.24902 | 9498 ft | 269 kts | 290° |
| 2026-05-05 19:16 | -12.02885 | 43.23125 | 9373 ft | 266 kts | 290° |
| 2026-05-05 19:16 | -12.02228 | 43.21360 | 9222 ft | 266 kts | 291° |
| 2026-05-05 19:16 | -12.01363 | 43.19672 | 8744 ft | 272 kts | 310° |
| 2026-05-05 19:17 | -11.99960 | 43.18442 | 8580 ft | 263 kts | 331° |
| 2026-05-05 19:17 | -11.98268 | 43.17817 | 8301 ft | 258 kts | 353° |
| 2026-05-05 19:17 | -11.96497 | 43.17851 | 8000 ft | 254 kts | 12° |
| 2026-05-05 19:17 | -11.94765 | 43.18188 | 7692 ft | 253 kts | 13° |
| 2026-05-05 19:18 | -11.93041 | 43.18519 | 7434 ft | 250 kts | 12° |
| 2026-05-05 19:18 | -11.91358 | 43.18839 | 7310 ft | 242 kts | 13° |
| 2026-05-05 19:18 | -11.89720 | 43.19150 | 7097 ft | 238 kts | 12° |
| 2026-05-05 19:18 | -11.88102 | 43.19457 | 6829 ft | 236 kts | 13° |
| 2026-05-05 19:19 | -11.86490 | 43.19764 | 6514 ft | 236 kts | 13° |
| 2026-05-05 19:19 | -11.84836 | 43.20081 | 5882 ft | 246 kts | 13° |
| 2026-05-05 19:19 | -11.83133 | 43.20406 | 5233 ft | 251 kts | 13° |
| 2026-05-05 19:19 | -11.81407 | 43.20737 | 4598 ft | 251 kts | 14° |
| 2026-05-05 19:20 | -11.79798 | 43.21291 | 3956 ft | 239 kts | 24° |
| 2026-05-05 19:20 | -11.78283 | 43.21906 | 3443 ft | 227 kts | 23° |
| 2026-05-05 19:20 | -11.76881 | 43.22466 | 3233 ft | 204 kts | 24° |
| 2026-05-05 19:20 | -11.75600 | 43.22976 | 3103 ft | 195 kts | 23° |
| 2026-05-05 19:21 | -11.74304 | 43.23379 | 3025 ft | 196 kts | 15° |
| 2026-05-05 19:21 | -11.72964 | 43.23670 | 3007 ft | 198 kts | 13° |
| 2026-05-05 19:21 | -11.71605 | 43.23925 | 3007 ft | 199 kts | 12° |
| 2026-05-05 19:21 | -11.70232 | 43.24172 | 2955 ft | 201 kts | 12° |
| 2026-05-05 19:22 | -11.68860 | 43.24418 | 2754 ft | 199 kts | 11° |
| 2026-05-05 19:22 | -11.67502 | 43.24660 | 2516 ft | 194 kts | 12° |
| 2026-05-05 19:22 | -11.66203 | 43.24891 | 2271 ft | 186 kts | 12° |
| 2026-05-05 19:22 | -11.64950 | 43.25116 | 2040 ft | 181 kts | 12° |
| 2026-05-05 19:23 | -11.63721 | 43.25335 | 1820 ft | 179 kts | 12° |
| 2026-05-05 19:23 | -11.62503 | 43.25552 | 1598 ft | 177 kts | 12° |
| 2026-05-05 19:23 | -11.61285 | 43.25770 | 1373 ft | 177 kts | 12° |
| 2026-05-05 19:23 | -11.60094 | 43.25982 | 1155 ft | 167 kts | 11° |
| 2026-05-05 19:24 | -11.59034 | 43.26171 | 964 ft | 143 kts | 12° |
| 2026-05-05 19:24 | -11.58094 | 43.26338 | 782 ft | 133 kts | 12° |
| 2026-05-05 19:24 | -11.57205 | 43.26497 | 615 ft | 127 kts | 9° |
| 2026-05-05 19:24 | -11.56343 | 43.26654 | 467 ft | 124 kts | 12° |
| 2026-05-05 19:25 | -11.55499 | 43.26814 | 301 ft | 122 kts | 13° |
| 2026-05-05 19:25 | -11.54667 | 43.26963 | 126 ft | 121 kts | 11° |
| 2026-05-05 19:25 | -11.53874 | 43.27105 | 79 ft | 103 kts | 11° |
| 2026-05-05 19:25 | -11.53289 | 43.27207 | 85 ft | 61 kts | 9° |
| 2026-05-05 19:26 | -11.53065 | 43.27257 | 85 ft | 12 kts | 331° |
| 2026-05-05 19:26 | -11.53067 | 43.27242 | 88 ft | 2 kts | 186° |
| 2026-05-05 19:26 | -11.53148 | 43.27232 | 86 ft | 18 kts | 189° |
| 2026-05-05 19:26 | -11.53287 | 43.27204 | 85 ft | 22 kts | 191° |
| 2026-05-05 19:27 | -11.53454 | 43.27176 | 85 ft | 26 kts | 188° |
| 2026-05-05 19:27 | -11.53596 | 43.27151 | 82 ft | 10 kts | 190° |
| 2026-05-05 19:27 | -11.53655 | 43.27168 | 79 ft | 11 kts | 120° |
| 2026-05-05 19:27 | -11.53669 | 43.27235 | 79 ft | 11 kts | 101° |
| 2026-05-05 19:28 | -11.53676 | 43.27267 | 79 ft | 2 kts | 101° |
| 2026-05-05 19:28 | -11.53678 | 43.27281 | 84 ft | 2 kts | 101° |
| 2026-05-05 19:28 | -11.53681 | 43.27294 | 82 ft | 3 kts | 101° |
| 2026-05-05 19:28 | -11.53684 | 43.27309 | 81 ft | 4 kts | 101° |
| 2026-05-05 19:29 | -11.53678 | 43.27351 | 80 ft | 8 kts | 68° |
| 2026-05-05 19:29 | -11.53646 | 43.27383 | 80 ft | 7 kts | 26° |
| 2026-05-05 19:29 | -11.53606 | 43.27410 | 82 ft | 8 kts | 64° |
| 2026-05-05 19:29 | -11.53631 | 43.27432 | 81 ft | 4 kts | 206° |
| 2026-05-05 19:30 | -11.53649 | 43.27409 | 80 ft | 0 kts | 234° |
| 2026-05-05 19:33 | -11.53674 | 43.27400 | 80 ft | 0 kts | 151° |